createdAt,value
2016-06-08T00:00:44.386Z,23.94
2016-06-08T00:01:44.359Z,23.99
2016-06-08T00:02:44.658Z,23.99
2016-06-08T00:03:44.347Z,23.99
2016-06-08T00:04:44.319Z,24
2016-06-08T00:05:44.306Z,23.97
2016-06-08T00:06:45.559Z,23.94
2016-06-08T00:07:44.280Z,23.97
2016-06-08T00:08:44.267Z,23.99
2016-06-08T00:09:44.255Z,24.02
2016-06-08T00:10:44.226Z,24.04
2016-06-08T00:11:44.666Z,24.06
2016-06-08T00:12:44.215Z,24.05
2016-06-08T00:13:44.218Z,24.02
2016-06-08T00:14:44.205Z,24.04
2016-06-08T00:15:44.177Z,24.08
2016-06-08T00:16:44.180Z,24.06
2016-06-08T00:17:44.151Z,24.09
2016-06-08T00:18:44.138Z,24.09
2016-06-08T00:19:44.125Z,23.97
2016-06-08T00:20:44.128Z,24.11
2016-06-08T00:21:44.396Z,24.09
2016-06-08T00:22:44.102Z,24.08
2016-06-08T00:23:44.089Z,24.15
2016-06-08T00:24:44.075Z,24.09
2016-06-08T00:25:44.063Z,24.04
2016-06-08T00:26:44.050Z,23.97
2016-06-08T00:27:44.037Z,24.08
2016-06-08T00:28:44.024Z,24.18
2016-06-08T00:29:44.027Z,24.05
2016-06-08T00:30:43.998Z,24.04
2016-06-08T00:31:43.986Z,24.06
2016-06-08T00:32:44.036Z,24.09
2016-06-08T00:33:43.819Z,24.16
2016-06-08T00:34:43.947Z,24.16
2016-06-08T00:35:43.949Z,24.14
2016-06-08T00:36:43.936Z,24.05
2016-06-08T00:37:43.924Z,24.11
2016-06-08T00:38:44.019Z,24.09
2016-06-08T00:39:43.898Z,24.14
2016-06-08T00:40:43.853Z,24.06
2016-06-08T00:41:43.872Z,24.11
2016-06-08T00:42:43.844Z,24.11
2016-06-08T00:43:43.830Z,24.16
2016-06-08T00:44:43.818Z,24.12
2016-06-08T00:45:43.820Z,24.19
2016-06-08T00:46:43.791Z,24.09
2016-06-08T00:47:43.779Z,24.08
2016-06-08T00:48:43.766Z,24.11
2016-06-08T00:49:43.737Z,24.08
2016-06-08T00:50:43.880Z,24.19
2016-06-08T00:51:44.195Z,24.19
2016-06-08T00:52:43.714Z,24.16
2016-06-08T00:53:43.701Z,24.19
2016-06-08T00:54:43.687Z,24.21
2016-06-08T00:55:43.691Z,24.15
2016-06-08T00:56:44.865Z,24.21
2016-06-08T00:57:43.649Z,24.16
2016-06-08T00:58:43.621Z,24.21
2016-06-08T00:59:43.639Z,24.11
2016-06-08T01:00:43.626Z,24.16
2016-06-08T01:01:43.613Z,24.19
2016-06-08T01:02:44.100Z,24.14
2016-06-08T01:03:43.587Z,24.12
2016-06-08T01:04:43.559Z,24.12
2016-06-08T01:05:43.545Z,24.15
2016-06-08T01:06:43.517Z,24.15
2016-06-08T01:07:43.519Z,24.15
2016-06-08T01:08:43.507Z,24.18
2016-06-08T01:09:43.510Z,24.12
2016-06-08T01:10:44.199Z,24.18
2016-06-08T01:11:43.969Z,24.19
2016-06-08T01:12:43.471Z,24.16
2016-06-08T01:13:43.442Z,24.15
2016-06-08T01:14:43.461Z,24.19
2016-06-08T01:15:43.432Z,24.16
2016-06-08T01:16:43.435Z,24.12
2016-06-08T01:17:43.406Z,24.16
2016-06-08T01:18:43.393Z,24.11
2016-06-08T01:19:43.380Z,24.26
2016-06-08T01:20:43.196Z,24.14
2016-06-08T01:21:43.338Z,24.11
2016-06-08T01:22:43.185Z,24.21
2016-06-08T01:23:44.094Z,24.3
2016-06-08T01:24:43.331Z,24.16
2016-06-08T01:25:43.287Z,24.11
2016-06-08T01:26:43.133Z,24.16
2016-06-08T01:27:43.277Z,24.3
2016-06-08T01:28:43.279Z,24.15
2016-06-08T01:29:43.235Z,24.19
2016-06-08T01:30:43.238Z,24.24
2016-06-08T01:31:44.225Z,24.23
2016-06-08T01:32:43.212Z,24.11
2016-06-08T01:33:43.199Z,24.31
2016-06-08T01:34:43.202Z,24.27
2016-06-08T01:35:43.189Z,24.27
2016-06-08T01:36:44.426Z,24.14
2016-06-08T01:37:43.256Z,24.23
2016-06-08T01:38:43.150Z,24.14
2016-06-08T01:39:43.136Z,24.3
2016-06-08T01:40:42.952Z,24.24
2016-06-08T01:41:43.142Z,24.24
2016-06-08T01:42:43.723Z,24.24
2016-06-08T01:43:43.070Z,24.21
2016-06-08T01:44:43.057Z,24.21
2016-06-08T01:45:43.044Z,24.26
2016-06-08T01:46:43.047Z,24.21
2016-06-08T01:47:43.018Z,24.16
2016-06-08T01:48:43.021Z,24.21
2016-06-08T01:49:43.023Z,24.19
2016-06-08T01:50:42.995Z,24.29
2016-06-08T01:51:43.841Z,24.27
2016-06-08T01:52:42.969Z,24.27
2016-06-08T01:53:42.815Z,24.23
2016-06-08T01:54:42.943Z,24.18
2016-06-08T01:55:42.929Z,24.24
2016-06-08T01:56:42.917Z,24.23
2016-06-08T01:57:43.029Z,24.24
2016-06-08T01:58:43.595Z,24.24
2016-06-08T01:59:42.879Z,24.3
2016-06-08T02:00:42.865Z,24.27
2016-06-08T02:01:42.853Z,24.26
2016-06-08T02:02:42.856Z,24.24
2016-06-08T02:03:42.842Z,24.18
2016-06-08T02:04:43.267Z,24.23
2016-06-08T02:05:42.800Z,24.31
2016-06-08T02:06:42.788Z,24.23
2016-06-08T02:07:42.775Z,24.26
2016-06-08T02:08:42.762Z,24.18
2016-06-08T02:09:42.749Z,24.12
2016-06-08T02:10:42.736Z,24.18
2016-06-08T02:11:43.176Z,24.18
2016-06-08T02:12:43.242Z,24.19
2016-06-08T02:13:42.697Z,24.18
2016-06-08T02:14:42.700Z,24.24
2016-06-08T02:15:42.672Z,24.15
2016-06-08T02:16:42.674Z,24.3
2016-06-08T02:17:42.646Z,24.21
2016-06-08T02:18:42.664Z,24.3
2016-06-08T02:19:43.119Z,24.18
2016-06-08T02:20:42.622Z,24.21
2016-06-08T02:21:42.593Z,24.23
2016-06-08T02:22:42.596Z,24.16
2016-06-08T02:23:42.427Z,24.29
2016-06-08T02:24:42.587Z,24.23
2016-06-08T02:25:42.417Z,24.23
2016-06-08T02:26:43.404Z,24.29
2016-06-08T02:27:42.219Z,24.29
2016-06-08T02:28:42.518Z,24.18
2016-06-08T02:29:42.506Z,24.19
2016-06-08T02:30:42.508Z,24.26
2016-06-08T02:31:42.324Z,24.23
2016-06-08T02:32:42.467Z,24.26
2016-06-08T02:33:42.454Z,24.26
2016-06-08T02:34:43.145Z,24.26
2016-06-08T02:35:42.428Z,24.21
2016-06-08T02:36:42.431Z,24.24
2016-06-08T02:37:42.403Z,24.19
2016-06-08T02:38:42.389Z,24.26
2016-06-08T02:39:42.392Z,24.24
2016-06-08T02:40:42.364Z,24.21
2016-06-08T02:41:42.428Z,24.31
2016-06-08T02:42:43.119Z,24.26
2016-06-08T02:43:42.340Z,24.26
2016-06-08T02:44:42.327Z,24.23
2016-06-08T02:45:42.331Z,24.31
2016-06-08T02:46:42.316Z,24.3
2016-06-08T02:47:42.305Z,24.3
2016-06-08T02:48:42.291Z,24.23
2016-06-08T02:49:42.247Z,24.36
2016-06-08T02:50:42.266Z,24.21
2016-06-08T02:51:42.096Z,24.23
2016-06-08T02:52:42.240Z,24.26
2016-06-08T02:53:42.227Z,24.23
2016-06-08T02:54:42.198Z,24.23
2016-06-08T02:55:42.029Z,24.26
2016-06-08T02:56:42.282Z,24.23
2016-06-08T02:57:42.034Z,24.21
2016-06-08T02:58:42.224Z,24.34
2016-06-08T02:59:42.148Z,24.26
2016-06-08T03:00:42.136Z,24.26
2016-06-08T03:01:42.108Z,24.24
2016-06-08T03:02:42.094Z,24.23
2016-06-08T03:03:42.082Z,24.3
2016-06-08T03:04:42.115Z,24.21
2016-06-08T03:05:42.072Z,24.26
2016-06-08T03:06:42.043Z,24.21
2016-06-08T03:07:41.889Z,24.27
2016-06-08T03:08:42.017Z,24.23
2016-06-08T03:09:42.004Z,24.27
2016-06-08T03:10:41.991Z,24.16
2016-06-08T03:11:41.978Z,24.21
2016-06-08T03:12:42.559Z,24.31
2016-06-08T03:13:41.968Z,24.3
2016-06-08T03:14:41.971Z,24.23
2016-06-08T03:15:41.957Z,24.23
2016-06-08T03:16:41.944Z,24.21
2016-06-08T03:17:41.917Z,24.23
2016-06-08T03:18:42.107Z,24.21
2016-06-08T03:19:41.891Z,24.31
2016-06-08T03:20:41.893Z,24.21
2016-06-08T03:21:41.880Z,24.3
2016-06-08T03:22:41.851Z,24.23
2016-06-08T03:23:41.838Z,24.33
2016-06-08T03:24:41.810Z,24.29
2016-06-08T03:25:41.829Z,24.23
2016-06-08T03:26:41.816Z,24.16
2016-06-08T03:27:42.490Z,24.19
2016-06-08T03:28:41.759Z,24.21
2016-06-08T03:29:41.745Z,24.29
2016-06-08T03:30:41.748Z,24.26
2016-06-08T03:31:42.031Z,24.26
2016-06-08T03:32:41.722Z,24.24
2016-06-08T03:33:41.694Z,24.27
2016-06-08T03:34:41.696Z,24.26
2016-06-08T03:35:41.684Z,24.21
2016-06-08T03:36:41.655Z,24.26
2016-06-08T03:37:41.642Z,24.23
2016-06-08T03:38:41.629Z,24.27
2016-06-08T03:39:42.022Z,24.27
2016-06-08T03:40:41.462Z,24.31
2016-06-08T03:41:41.450Z,24.3
2016-06-08T03:42:41.500Z,24.27
2016-06-08T03:43:41.580Z,24.3
2016-06-08T03:44:41.567Z,24.31
2016-06-08T03:45:41.555Z,24.24
2016-06-08T03:46:41.541Z,24.27
2016-06-08T03:47:42.074Z,24.24
2016-06-08T03:48:41.516Z,24.3
2016-06-08T03:49:41.518Z,24.3
2016-06-08T03:50:41.489Z,24.21
2016-06-08T03:51:41.320Z,24.23
2016-06-08T03:52:41.463Z,24.26
2016-06-08T03:53:41.451Z,24.23
2016-06-08T03:54:41.282Z,24.18
2016-06-08T03:55:42.081Z,24.29
2016-06-08T03:56:41.255Z,24.33
2016-06-08T03:57:41.961Z,24.21
2016-06-08T03:58:41.386Z,24.23
2016-06-08T03:59:41.374Z,24.27
2016-06-08T04:00:41.376Z,24.26
2016-06-08T04:01:41.347Z,24.26
2016-06-08T04:02:41.334Z,24.27
2016-06-08T04:03:41.337Z,24.26
2016-06-08T04:04:41.308Z,24.18
2016-06-08T04:05:41.326Z,24.3
2016-06-08T04:06:41.314Z,24.24
2016-06-08T04:07:41.301Z,24.21
2016-06-08T04:08:41.272Z,24.24
2016-06-08T04:09:41.259Z,24.23
2016-06-08T04:10:41.247Z,24.21
2016-06-08T04:11:41.342Z,24.24
2016-06-08T04:12:42.392Z,24.26
2016-06-08T04:13:41.207Z,24.23
2016-06-08T04:14:41.195Z,24.33
2016-06-08T04:15:41.182Z,24.18
2016-06-08T04:16:41.169Z,24.29
2016-06-08T04:17:41.155Z,24.16
2016-06-08T04:18:41.143Z,24.24
2016-06-08T04:19:41.380Z,24.24
2016-06-08T04:20:41.116Z,24.24
2016-06-08T04:21:41.104Z,24.24
2016-06-08T04:22:41.091Z,24.12
2016-06-08T04:23:41.094Z,24.16
2016-06-08T04:24:41.080Z,24.15
2016-06-08T04:25:41.099Z,24.23
2016-06-08T04:26:41.102Z,24.21
2016-06-08T04:27:42.198Z,24.27
2016-06-08T04:28:41.029Z,24.23
2016-06-08T04:29:41.000Z,24.26
2016-06-08T04:30:41.004Z,24.21
2016-06-08T04:31:40.975Z,24.18
2016-06-08T04:32:40.993Z,24.23
2016-06-08T04:33:40.965Z,24.14
2016-06-08T04:34:40.936Z,24.23
2016-06-08T04:35:41.392Z,24.23
2016-06-08T04:36:40.925Z,24.21
2016-06-08T04:37:40.912Z,24.21
2016-06-08T04:38:40.900Z,24.21
2016-06-08T04:39:40.903Z,24.14
2016-06-08T04:40:40.889Z,24.29
2016-06-08T04:41:40.861Z,24.15
2016-06-08T04:42:41.114Z,24.14
2016-06-08T04:43:40.678Z,24.16
2016-06-08T04:44:40.666Z,24.16
2016-06-08T04:45:40.808Z,24.26
2016-06-08T04:46:40.812Z,24.21
2016-06-08T04:47:40.784Z,24.24
2016-06-08T04:48:40.802Z,24.23
2016-06-08T04:49:40.757Z,24.12
2016-06-08T04:50:40.994Z,24.11
2016-06-08T04:51:40.747Z,24.15
2016-06-08T04:52:40.718Z,24.12
2016-06-08T04:53:40.722Z,24.14
2016-06-08T04:54:40.693Z,24.24
2016-06-08T04:55:40.696Z,24.24
2016-06-08T04:56:40.666Z,24.16
2016-06-08T04:57:40.513Z,24.24
2016-06-08T04:58:41.766Z,24.24
2016-06-08T04:59:40.643Z,24.15
2016-06-08T05:00:40.615Z,24.26
2016-06-08T05:01:40.617Z,24.16
2016-06-08T05:02:40.604Z,24.21
2016-06-08T05:03:40.593Z,24.24
2016-06-08T05:04:40.579Z,24.23
2016-06-08T05:05:40.566Z,24.26
2016-06-08T05:06:41.009Z,24.31
2016-06-08T05:07:40.553Z,24.18
2016-06-08T05:08:40.395Z,24.19
2016-06-08T05:09:40.548Z,24.15
2016-06-08T05:10:40.546Z,24.21
2016-06-08T05:11:40.541Z,24.14
2016-06-08T05:12:40.845Z,24.23
2016-06-08T05:13:40.538Z,24.16
2016-06-08T05:14:41.108Z,24.14
2016-06-08T05:15:40.504Z,24.14
2016-06-08T05:16:40.495Z,24.18
2016-06-08T05:17:40.499Z,24.24
2016-06-08T05:18:40.471Z,24.23
2016-06-08T05:19:40.475Z,24.21
2016-06-08T05:20:40.292Z,24.15
2016-06-08T05:21:40.436Z,24.19
2016-06-08T05:22:41.079Z,24.12
2016-06-08T05:23:40.411Z,24.24
2016-06-08T05:24:40.414Z,24.14
2016-06-08T05:25:40.386Z,24.11
2016-06-08T05:26:40.389Z,24.18
2016-06-08T05:27:41.173Z,24.18
2016-06-08T05:28:40.379Z,24.16
2016-06-08T05:29:40.351Z,24.11
2016-06-08T05:30:40.385Z,24.3
2016-06-08T05:31:40.326Z,24.14
2016-06-08T05:32:40.313Z,24.14
2016-06-08T05:33:40.301Z,24.27
2016-06-08T05:34:40.287Z,24.21
2016-06-08T05:35:40.274Z,24.15
2016-06-08T05:36:40.261Z,24.21
2016-06-08T05:37:40.249Z,24.12
2016-06-08T05:38:40.392Z,24.11
2016-06-08T05:39:40.066Z,24.18
2016-06-08T05:40:40.210Z,24.14
2016-06-08T05:41:40.181Z,24.16
2016-06-08T05:42:40.371Z,24.15
2016-06-08T05:43:40.967Z,24.11
2016-06-08T05:44:40.158Z,24.18
2016-06-08T05:45:40.145Z,24.11
2016-06-08T05:46:40.382Z,24.27
2016-06-08T05:47:40.119Z,24.16
2016-06-08T05:48:40.106Z,24.14
2016-06-08T05:49:40.094Z,24.11
2016-06-08T05:50:40.080Z,24.15
2016-06-08T05:51:40.067Z,24.23
2016-06-08T05:52:40.055Z,24.18
2016-06-08T05:53:40.041Z,24.16
2016-06-08T05:54:41.232Z,24.24
2016-06-08T05:55:40.015Z,24.16
2016-06-08T05:56:40.003Z,24.12
2016-06-08T05:57:40.193Z,24.19
2016-06-08T05:58:40.024Z,24.12
2016-06-08T05:59:39.979Z,24.09
2016-06-08T06:00:39.966Z,24.15
2016-06-08T06:01:40.047Z,24.19
2016-06-08T06:02:40.424Z,24.15
2016-06-08T06:03:39.912Z,24.24
2016-06-08T06:04:39.758Z,24.18
2016-06-08T06:05:39.902Z,24.24
2016-06-08T06:06:39.890Z,24.15
2016-06-08T06:07:39.876Z,24.19
2016-06-08T06:08:39.862Z,24.19
2016-06-08T06:09:40.053Z,24.15
2016-06-08T06:10:39.837Z,24.23
2016-06-08T06:11:39.667Z,24.16
2016-06-08T06:12:39.905Z,24.34
2016-06-08T06:13:40.048Z,24.18
2016-06-08T06:14:39.786Z,24.29
2016-06-08T06:15:39.773Z,24.21
2016-06-08T06:16:39.759Z,23.9
2016-06-08T06:17:40.200Z,23.41
2016-06-08T06:18:39.733Z,23.29
2016-06-08T06:19:39.720Z,23.03
2016-06-08T06:20:39.723Z,22.84
2016-06-08T06:21:39.710Z,22.61
2016-06-08T06:22:39.682Z,22.57
2016-06-08T06:23:39.685Z,22.63
2016-06-08T06:24:39.500Z,22.61
2016-06-08T06:25:40.049Z,22.57
2016-06-08T06:26:39.630Z,22.49
2016-06-08T06:27:39.617Z,22.57
2016-06-08T06:28:39.479Z,22.52
2016-06-08T06:29:39.607Z,22.49
2016-06-08T06:30:39.593Z,22.51
2016-06-08T06:31:39.581Z,22.48
2016-06-08T06:32:39.553Z,22.41
2016-06-08T06:33:40.071Z,22.33
2016-06-08T06:34:39.401Z,22.38
2016-06-08T06:35:39.514Z,22.66
2016-06-08T06:36:39.501Z,23.01
2016-06-08T06:37:39.504Z,23.31
2016-06-08T06:38:39.475Z,23.41
2016-06-08T06:39:39.478Z,23.6
2016-06-08T06:40:39.449Z,23.67
2016-06-08T06:41:40.092Z,23.78
2016-06-08T06:42:39.423Z,23.81
2016-06-08T06:43:39.848Z,23.87
2016-06-08T06:44:39.398Z,23.93
2016-06-08T06:45:39.400Z,23.94
2016-06-08T06:46:39.387Z,24.02
2016-06-08T06:47:39.359Z,24.02
2016-06-08T06:48:39.345Z,24.12
2016-06-08T06:49:39.333Z,24.12
2016-06-08T06:50:39.178Z,24.09
2016-06-08T06:51:39.306Z,23.97
2016-06-08T06:52:39.294Z,24.15
2016-06-08T06:53:39.297Z,24.05
2016-06-08T06:54:39.284Z,24.18
2016-06-08T06:55:39.271Z,24.12
2016-06-08T06:56:39.242Z,24.06
2016-06-08T06:57:39.385Z,24.15
2016-06-08T06:58:40.247Z,24.11
2016-06-08T06:59:39.219Z,24.24
2016-06-08T07:00:39.049Z,24.14
2016-06-08T07:01:39.193Z,24.26
2016-06-08T07:02:39.165Z,24.24
2016-06-08T07:03:39.152Z,24.21
2016-06-08T07:04:39.155Z,24.27
2016-06-08T07:05:40.187Z,24.18
2016-06-08T07:06:39.113Z,24.18
2016-06-08T07:07:39.116Z,24.29
2016-06-08T07:08:39.087Z,24.14
2016-06-08T07:09:38.934Z,24.23
2016-06-08T07:10:39.076Z,24.19
2016-06-08T07:11:38.892Z,24.24
2016-06-08T07:12:39.051Z,24.19
2016-06-08T07:13:40.287Z,24.24
2016-06-08T07:14:39.025Z,24.15
2016-06-08T07:15:39.011Z,24.31
2016-06-08T07:16:38.998Z,24.24
2016-06-08T07:17:38.987Z,24.18
2016-06-08T07:18:38.973Z,24.3
2016-06-08T07:19:38.933Z,24.27
2016-06-08T07:20:38.951Z,24.19
2016-06-08T07:21:40.018Z,24.21
2016-06-08T07:22:38.914Z,24.27
2016-06-08T07:23:38.913Z,24.23
2016-06-08T07:24:38.888Z,24.31
2016-06-08T07:25:38.750Z,24.26
2016-06-08T07:26:38.862Z,24.24
2016-06-08T07:27:38.850Z,24.3
2016-06-08T07:28:38.884Z,24.29
2016-06-08T07:29:38.855Z,24.29
2016-06-08T07:30:38.826Z,24.3
2016-06-08T07:31:38.813Z,24.29
2016-06-08T07:32:38.800Z,24.24
2016-06-08T07:33:38.944Z,24.26
2016-06-08T07:34:38.775Z,24.23
2016-06-08T07:35:38.767Z,24.27
2016-06-08T07:36:38.739Z,24.26
2016-06-08T07:37:38.586Z,24.23
2016-06-08T07:38:38.729Z,24.29
2016-06-08T07:39:38.700Z,24.23
2016-06-08T07:40:38.687Z,24.26
2016-06-08T07:41:38.680Z,24.26
2016-06-08T07:42:38.682Z,24.26
2016-06-08T07:43:39.716Z,24.23
2016-06-08T07:44:38.656Z,24.27
2016-06-08T07:45:38.377Z,24.08
2016-06-08T07:46:38.458Z,23.81
2016-06-08T07:47:38.617Z,23.67
2016-06-08T07:48:38.588Z,23.57
2016-06-08T07:49:38.591Z,23.47
2016-06-08T07:50:38.579Z,23.41
2016-06-08T07:51:38.560Z,23.39
2016-06-08T07:52:38.548Z,23.35
2016-06-08T07:53:38.379Z,23.25
2016-06-08T07:54:41.224Z,23.22
2016-06-08T07:55:38.509Z,23.29
2016-06-08T07:56:38.498Z,23.16
2016-06-08T07:57:38.469Z,23.16
2016-06-08T07:58:38.815Z,23.11
2016-06-08T07:59:38.303Z,23.15
2016-06-08T08:00:38.445Z,23.14
2016-06-08T08:01:38.417Z,23.14
2016-06-08T08:02:38.405Z,23.06
2016-06-08T08:03:38.408Z,23.09
2016-06-08T08:04:38.410Z,23.15
2016-06-08T08:05:38.397Z,23.16
2016-06-08T08:06:38.369Z,23.21
2016-06-08T08:07:38.387Z,23.18
2016-06-08T08:08:38.343Z,23.18
2016-06-08T08:09:38.174Z,23.25
2016-06-08T08:10:38.427Z,23.29
2016-06-08T08:11:38.291Z,23.16
2016-06-08T08:12:38.294Z,23.18
2016-06-08T08:13:38.547Z,23.11
2016-06-08T08:14:38.119Z,23.15
2016-06-08T08:15:38.247Z,23.18
2016-06-08T08:16:38.249Z,23.12
2016-06-08T08:17:38.221Z,23.38
2016-06-08T08:18:38.427Z,23.41
2016-06-08T08:19:38.196Z,23.6
2016-06-08T08:20:38.198Z,23.67
2016-06-08T08:21:38.185Z,23.79
2016-06-08T08:22:38.171Z,23.86
2016-06-08T08:23:38.004Z,23.93
2016-06-08T08:24:38.163Z,23.5
2016-06-08T08:25:38.258Z,22.84
2016-06-08T08:26:38.402Z,22.74
2016-06-08T08:27:38.092Z,22.57
2016-06-08T08:28:38.157Z,22.76
2016-06-08T08:29:38.082Z,23
2016-06-08T08:30:38.053Z,23.21
2016-06-08T08:31:38.056Z,23.47
2016-06-08T08:32:38.027Z,23.57
2016-06-08T08:33:38.045Z,23.64
2016-06-08T08:34:38.564Z,23.86
2016-06-08T08:35:38.035Z,23.89
2016-06-08T08:36:38.038Z,23.93
2016-06-08T08:37:37.853Z,23.99
2016-06-08T08:38:37.981Z,24.02
2016-06-08T08:39:37.953Z,24.02
2016-06-08T08:40:37.939Z,24.05
2016-06-08T08:41:37.770Z,24.09
2016-06-08T08:42:38.492Z,24.14
2016-06-08T08:43:37.901Z,24.11
2016-06-08T08:44:37.888Z,24.15
2016-06-08T08:45:37.875Z,24.11
2016-06-08T08:46:37.846Z,24.29
2016-06-08T08:47:37.677Z,24.23
2016-06-08T08:48:37.835Z,24.23
2016-06-08T08:49:37.807Z,24.23
2016-06-08T08:50:38.451Z,24.3
2016-06-08T08:51:37.796Z,24.29
2016-06-08T08:52:37.768Z,24.31
2016-06-08T08:53:37.615Z,24.31
2016-06-08T08:54:37.742Z,24.24
2016-06-08T08:55:37.745Z,24.24
2016-06-08T08:56:37.732Z,24.27
2016-06-08T08:57:37.720Z,24.27
2016-06-08T08:58:37.723Z,24.31
2016-06-08T08:59:38.179Z,24.24
2016-06-08T09:00:37.523Z,24.23
2016-06-08T09:01:37.652Z,24.19
2016-06-08T09:02:37.655Z,24.27
2016-06-08T09:03:37.626Z,24.21
2016-06-08T09:04:37.614Z,24.27
2016-06-08T09:05:37.616Z,24.24
2016-06-08T09:06:38.509Z,24.27
2016-06-08T09:07:37.575Z,24.26
2016-06-08T09:08:37.561Z,24.26
2016-06-08T09:09:37.564Z,24.23
2016-06-08T09:10:37.536Z,24.3
2016-06-08T09:11:37.522Z,24.36
2016-06-08T09:12:37.525Z,24.27
2016-06-08T09:13:37.559Z,24.27
2016-06-08T09:14:38.859Z,24.3
2016-06-08T09:15:37.502Z,24.33
2016-06-08T09:16:37.474Z,24.26
2016-06-08T09:17:37.461Z,24.3
2016-06-08T09:18:37.479Z,24.36
2016-06-08T09:19:37.435Z,24.34
2016-06-08T09:20:37.422Z,24.31
2016-06-08T09:21:37.519Z,24.29
2016-06-08T09:22:37.740Z,24.41
2016-06-08T09:23:37.305Z,24.3
2016-06-08T09:24:37.370Z,24.42
2016-06-08T09:25:37.373Z,24.31
2016-06-08T09:26:37.344Z,24.33
2016-06-08T09:27:37.332Z,24.41
2016-06-08T09:28:37.021Z,24.41
2016-06-08T09:29:37.570Z,24.45
2016-06-08T09:30:37.777Z,24.37
2016-06-08T09:31:37.311Z,24.41
2016-06-08T09:32:37.282Z,24.42
2016-06-08T09:33:37.253Z,24.36
2016-06-08T09:34:36.944Z,24.34
2016-06-08T09:35:37.243Z,24.39
2016-06-08T09:36:37.370Z,24.39
2016-06-08T09:37:37.045Z,24.39
2016-06-08T09:38:37.205Z,24.39
2016-06-08T09:39:37.192Z,24.39
2016-06-08T09:40:37.195Z,24.49
2016-06-08T09:41:37.166Z,24.48
2016-06-08T09:42:37.153Z,24.41
2016-06-08T09:43:37.156Z,24.42
2016-06-08T09:44:37.518Z,24.41
2016-06-08T09:45:36.974Z,24.44
2016-06-08T09:46:37.102Z,24.46
2016-06-08T09:47:36.932Z,24.44
2016-06-08T09:48:37.107Z,24.42
2016-06-08T09:49:37.063Z,24.41
2016-06-08T09:50:37.127Z,24.44
2016-06-08T09:51:37.036Z,24.44
2016-06-08T09:52:37.007Z,24.41
2016-06-08T09:53:37.027Z,24.48
2016-06-08T09:54:36.841Z,24.42
2016-06-08T09:55:36.985Z,24.48
2016-06-08T09:56:36.971Z,24.48
2016-06-08T09:57:36.959Z,24.41
2016-06-08T09:58:37.415Z,24.42
2016-06-08T09:59:39.432Z,24.46
2016-06-08T10:00:36.935Z,24.41
2016-06-08T10:01:36.907Z,24.42
2016-06-08T10:02:36.926Z,24.44
2016-06-08T10:03:36.881Z,24.46
2016-06-08T10:04:36.946Z,24.53
2016-06-08T10:05:36.856Z,24.52
2016-06-08T10:06:37.296Z,24.51
2016-06-08T10:07:36.830Z,24.51
2016-06-08T10:08:36.831Z,24.46
2016-06-08T10:09:36.664Z,24.51
2016-06-08T10:10:36.791Z,24.51
2016-06-08T10:11:36.778Z,24.53
2016-06-08T10:12:36.781Z,24.48
2016-06-08T10:13:37.939Z,24.48
2016-06-08T10:14:38.520Z,24.46
2016-06-08T10:15:36.742Z,24.49
2016-06-08T10:16:36.589Z,24.48
2016-06-08T10:17:36.716Z,24.51
2016-06-08T10:18:36.702Z,24.53
2016-06-08T10:19:36.690Z,24.55
2016-06-08T10:20:36.677Z,24.56
2016-06-08T10:21:36.524Z,24.52
2016-06-08T10:22:37.510Z,24.56
2016-06-08T10:23:36.841Z,24.53
2016-06-08T10:24:36.624Z,24.46
2016-06-08T10:25:36.612Z,24.55
2016-06-08T10:26:36.615Z,24.53
2016-06-08T10:27:36.430Z,24.56
2016-06-08T10:28:36.574Z,24.64
2016-06-08T10:29:36.420Z,24.53
2016-06-08T10:30:36.657Z,24.61
2016-06-08T10:31:36.550Z,24.59
2016-06-08T10:32:36.522Z,24.61
2016-06-08T10:33:36.509Z,24.63
2016-06-08T10:34:36.496Z,24.74
2016-06-08T10:35:36.358Z,24.68
2016-06-08T10:36:36.486Z,24.66
2016-06-08T10:37:36.473Z,24.67
2016-06-08T10:38:36.492Z,24.74
2016-06-08T10:39:36.447Z,24.71
2016-06-08T10:40:36.434Z,24.67
2016-06-08T10:41:36.421Z,24.68
2016-06-08T10:42:36.423Z,24.74
2016-06-08T10:43:36.395Z,24.68
2016-06-08T10:44:37.164Z,24.7
2016-06-08T10:45:36.635Z,24.68
2016-06-08T10:46:36.372Z,24.64
2016-06-08T10:47:36.358Z,24.68
2016-06-08T10:48:36.330Z,24.67
2016-06-08T10:49:36.317Z,24.63
2016-06-08T10:50:36.320Z,24.6
2016-06-08T10:51:36.151Z,24.66
2016-06-08T10:52:36.294Z,24.66
2016-06-08T10:53:36.625Z,24.68
2016-06-08T10:54:36.253Z,24.66
2016-06-08T10:55:36.255Z,24.64
2016-06-08T10:56:36.273Z,24.68
2016-06-08T10:57:36.213Z,24.64
2016-06-08T10:58:36.248Z,24.6
2016-06-08T10:59:36.844Z,24.61
2016-06-08T11:00:36.035Z,24.67
2016-06-08T11:01:37.429Z,24.6
2016-06-08T11:02:36.165Z,24.71
2016-06-08T11:03:36.137Z,24.74
2016-06-08T11:04:36.201Z,24.63
2016-06-08T11:05:36.142Z,24.77
2016-06-08T11:06:36.129Z,24.79
2016-06-08T11:07:36.101Z,24.71
2016-06-08T11:08:36.087Z,24.82
2016-06-08T11:09:36.200Z,24.75
2016-06-08T11:10:36.061Z,24.64
2016-06-08T11:11:36.064Z,24.66
2016-06-08T11:12:36.051Z,24.6
2016-06-08T11:13:35.881Z,24.75
2016-06-08T11:14:36.025Z,24.8
2016-06-08T11:15:35.747Z,24.8
2016-06-08T11:16:36.014Z,24.74
2016-06-08T11:17:35.971Z,24.86
2016-06-08T11:18:35.974Z,24.86
2016-06-08T11:19:35.960Z,24.86
2016-06-08T11:20:35.948Z,24.82
2016-06-08T11:21:35.936Z,24.84
2016-06-08T11:22:35.921Z,24.75
2016-06-08T11:23:35.925Z,24.75
2016-06-08T11:24:35.896Z,24.75
2016-06-08T11:25:35.883Z,24.79
2016-06-08T11:26:35.871Z,24.74
2016-06-08T11:27:35.857Z,24.68
2016-06-08T11:28:35.860Z,24.67
2016-06-08T11:29:36.097Z,24.59
2016-06-08T11:30:35.818Z,24.52
2016-06-08T11:31:35.805Z,24.6
2016-06-08T11:32:35.793Z,24.45
2016-06-08T11:33:35.795Z,24.52
2016-06-08T11:34:35.767Z,24.56
2016-06-08T11:35:35.754Z,24.48
2016-06-08T11:36:35.740Z,24.53
2016-06-08T11:37:35.743Z,24.52
2016-06-08T11:38:35.745Z,24.48
2016-06-08T11:39:35.561Z,24.56
2016-06-08T11:40:35.705Z,24.6
2016-06-08T11:41:35.676Z,24.52
2016-06-08T11:42:35.679Z,24.53
2016-06-08T11:43:35.666Z,24.46
2016-06-08T11:44:35.669Z,24.45
2016-06-08T11:45:35.640Z,24.44
2016-06-08T11:46:35.628Z,24.48
2016-06-08T11:47:35.458Z,24.39
2016-06-08T11:48:35.601Z,24.36
2016-06-08T11:49:35.432Z,24.33
2016-06-08T11:50:35.669Z,24.29
2016-06-08T11:51:35.281Z,24.31
2016-06-08T11:52:35.393Z,24.3
2016-06-08T11:53:35.568Z,24.29
2016-06-08T11:54:36.352Z,24.3
2016-06-08T11:55:35.526Z,24.29
2016-06-08T11:56:35.498Z,24.36
2016-06-08T11:57:35.485Z,24.3
2016-06-08T11:58:35.674Z,24.37
2016-06-08T11:59:35.334Z,24.33
2016-06-08T12:00:35.477Z,24.39
2016-06-08T12:01:35.479Z,24.34
2016-06-08T12:02:35.452Z,24.29
2016-06-08T12:03:35.688Z,24.34
2016-06-08T12:04:35.300Z,24.45
2016-06-08T12:05:35.081Z,24.44
2016-06-08T12:06:39.103Z,24.37
2016-06-08T12:07:35.371Z,24.36
2016-06-08T12:08:35.340Z,24.44
2016-06-08T12:09:35.343Z,24.41
2016-06-08T12:10:35.329Z,24.37
2016-06-08T12:11:35.301Z,24.33
2016-06-08T12:12:35.931Z,24.31
2016-06-08T12:13:35.590Z,24.26
2016-06-08T12:14:35.687Z,24.3
2016-06-08T12:15:35.265Z,24.29
2016-06-08T12:16:35.252Z,24.23
2016-06-08T12:17:35.223Z,24.3
2016-06-08T12:18:35.242Z,24.26
2016-06-08T12:19:35.213Z,24.31
2016-06-08T12:20:35.044Z,24.24
2016-06-08T12:21:35.046Z,24.23
2016-06-08T12:22:35.721Z,24.23
2016-06-08T12:23:35.161Z,24.26
2016-06-08T12:24:35.149Z,24.27
2016-06-08T12:25:35.135Z,24.31
2016-06-08T12:26:34.997Z,24.27
2016-06-08T12:27:35.125Z,24.24
2016-06-08T12:28:35.097Z,24.23
2016-06-08T12:29:35.913Z,24.26
2016-06-08T12:30:35.727Z,24.27
2016-06-08T12:31:35.057Z,24.23
2016-06-08T12:32:35.046Z,24.29
2016-06-08T12:33:35.032Z,24.27
2016-06-08T12:34:35.035Z,24.26
2016-06-08T12:35:35.021Z,24.26
2016-06-08T12:36:34.993Z,24.31
2016-06-08T12:37:34.980Z,24.31
2016-06-08T12:38:34.967Z,24.39
2016-06-08T12:39:34.954Z,24.41
2016-06-08T12:40:34.942Z,24.36
2016-06-08T12:41:34.928Z,24.42
2016-06-08T12:42:34.915Z,24.42
2016-06-08T12:43:34.903Z,24.44
2016-06-08T12:44:34.906Z,24.42
2016-06-08T12:45:34.736Z,24.42
2016-06-08T12:46:35.020Z,24.45
2016-06-08T12:47:34.851Z,24.45
2016-06-08T12:48:34.838Z,24.44
2016-06-08T12:49:34.825Z,24.44
2016-06-08T12:50:34.828Z,24.42
2016-06-08T12:51:34.814Z,24.45
2016-06-08T12:52:34.786Z,24.48
2016-06-08T12:53:34.789Z,24.51
2016-06-08T12:54:35.025Z,24.46